sensor_id;sensor_type;location;lat;lon;timestamp;temperature;humidity
1011;DHT22;494;48.744;10.106;2023-03-03T00:01:37;3.90;41.70
1011;DHT22;494;48.744;10.106;2023-03-03T00:04:06;4.00;41.50
1011;DHT22;494;48.744;10.106;2023-03-03T00:06:35;3.90;41.40
1011;DHT22;494;48.744;10.106;2023-03-03T00:09:03;4.00;41.50
1011;DHT22;494;48.744;10.106;2023-03-03T00:11:32;4.10;41.50
1011;DHT22;494;48.744;10.106;2023-03-03T00:14:01;4.30;41.10
1011;DHT22;494;48.744;10.106;2023-03-03T00:16:35;4.00;41.00
1011;DHT22;494;48.744;10.106;2023-03-03T00:19:12;4.00;41.30
1011;DHT22;494;48.744;10.106;2023-03-03T00:21:45;4.10;42.20
1011;DHT22;494;48.744;10.106;2023-03-03T00:24:20;4.00;41.60
1011;DHT22;494;48.744;10.106;2023-03-03T00:26:52;4.00;41.80
1011;DHT22;494;48.744;10.106;2023-03-03T00:29:27;4.10;41.50
1011;DHT22;494;48.744;10.106;2023-03-03T00:32:17;4.30;41.50
1011;DHT22;494;48.744;10.106;2023-03-03T00:34:51;4.30;41.30
1011;DHT22;494;48.744;10.106;2023-03-03T00:37:26;4.30;41.00
1011;DHT22;494;48.744;10.106;2023-03-03T00:40:02;4.30;41.00
1011;DHT22;494;48.744;10.106;2023-03-03T00:42:47;4.50;40.90
1011;DHT22;494;48.744;10.106;2023-03-03T00:45:30;4.30;41.10
1011;DHT22;494;48.744;10.106;2023-03-03T00:48:22;4.40;40.90
1011;DHT22;494;48.744;10.106;2023-03-03T00:50:54;4.40;41.00
1011;DHT22;494;48.744;10.106;2023-03-03T00:53:25;4.40;40.80
1011;DHT22;494;48.744;10.106;2023-03-03T00:55:56;4.40;40.70
1011;DHT22;494;48.744;10.106;2023-03-03T00:58:25;4.30;40.90
1011;DHT22;494;48.744;10.106;2023-03-03T01:00:54;4.30;41.20
1011;DHT22;494;48.744;10.106;2023-03-03T01:03:26;4.40;41.30
1011;DHT22;494;48.744;10.106;2023-03-03T01:05:55;4.30;41.50
1011;DHT22;494;48.744;10.106;2023-03-03T01:08:23;4.30;41.70
1011;DHT22;494;48.744;10.106;2023-03-03T01:10:54;4.60;41.80
1011;DHT22;494;48.744;10.106;2023-03-03T01:13:31;4.50;41.30
1011;DHT22;494;48.744;10.106;2023-03-03T01:16:04;4.60;41.10
1011;DHT22;494;48.744;10.106;2023-03-03T01:18:36;4.40;41.20
1011;DHT22;494;48.744;10.106;2023-03-03T01:21:06;4.40;41.50
1011;DHT22;494;48.744;10.106;2023-03-03T01:23:35;4.30;41.80
1011;DHT22;494;48.744;10.106;2023-03-03T01:26:04;4.10;42.30
1011;DHT22;494;48.744;10.106;2023-03-03T01:28:33;4.10;42.80
1011;DHT22;494;48.744;10.106;2023-03-03T01:31:03;4.30;42.70
1011;DHT22;494;48.744;10.106;2023-03-03T01:33:35;4.10;42.80
1011;DHT22;494;48.744;10.106;2023-03-03T01:36:05;4.00;43.50
1011;DHT22;494;48.744;10.106;2023-03-03T01:38:36;3.90;44.00
1011;DHT22;494;48.744;10.106;2023-03-03T01:41:05;3.90;44.40
1011;DHT22;494;48.744;10.106;2023-03-03T01:43:42;4.30;44.20
1011;DHT22;494;48.744;10.106;2023-03-03T01:49:22;4.30;43.40
1011;DHT22;494;48.744;10.106;2023-03-03T01:51:57;4.20;43.00
1011;DHT22;494;48.744;10.106;2023-03-03T01:54:33;4.40;43.20
1011;DHT22;494;48.744;10.106;2023-03-03T01:57:09;4.10;43.90
1011;DHT22;494;48.744;10.106;2023-03-03T01:59:43;4.20;44.00
1011;DHT22;494;48.744;10.106;2023-03-03T02:02:15;4.30;43.60
1011;DHT22;494;48.744;10.106;2023-03-03T02:04:45;4.50;43.50
1011;DHT22;494;48.744;10.106;2023-03-03T02:07:15;4.30;43.40
1011;DHT22;494;48.744;10.106;2023-03-03T02:09:52;4.50;43.60
1011;DHT22;494;48.744;10.106;2023-03-03T02:12:30;4.50;43.40
1011;DHT22;494;48.744;10.106;2023-03-03T02:15:14;4.50;43.00
1011;DHT22;494;48.744;10.106;2023-03-03T02:17:45;4.60;42.60
1011;DHT22;494;48.744;10.106;2023-03-03T02:20:24;4.70;42.60
1011;DHT22;494;48.744;10.106;2023-03-03T02:23:03;4.90;42.40
1011;DHT22;494;48.744;10.106;2023-03-03T02:25:44;5.00;42.00
1011;DHT22;494;48.744;10.106;2023-03-03T02:28:19;5.00;41.70
1011;DHT22;494;48.744;10.106;2023-03-03T02:30:48;5.10;41.50
1011;DHT22;494;48.744;10.106;2023-03-03T02:33:16;5.10;40.80
1011;DHT22;494;48.744;10.106;2023-03-03T02:35:45;5.20;41.10
1011;DHT22;494;48.744;10.106;2023-03-03T02:38:19;5.10;41.30
1011;DHT22;494;48.744;10.106;2023-03-03T02:40:58;5.30;41.10
1011;DHT22;494;48.744;10.106;2023-03-03T02:43:38;5.00;40.90
1011;DHT22;494;48.744;10.106;2023-03-03T02:46:13;5.20;41.30
1011;DHT22;494;48.744;10.106;2023-03-03T02:48:41;5.00;41.10
1011;DHT22;494;48.744;10.106;2023-03-03T02:51:10;5.20;41.40
1011;DHT22;494;48.744;10.106;2023-03-03T02:53:39;5.20;41.00
1011;DHT22;494;48.744;10.106;2023-03-03T02:56:08;5.00;41.10
1011;DHT22;494;48.744;10.106;2023-03-03T02:58:38;4.90;41.20
1011;DHT22;494;48.744;10.106;2023-03-03T03:01:07;4.70;41.90
1011;DHT22;494;48.744;10.106;2023-03-03T03:03:35;4.70;42.60
1011;DHT22;494;48.744;10.106;2023-03-03T03:06:05;4.60;43.10
1011;DHT22;494;48.744;10.106;2023-03-03T03:08:34;4.70;43.20
1011;DHT22;494;48.744;10.106;2023-03-03T03:11:03;4.80;42.90
1011;DHT22;494;48.744;10.106;2023-03-03T03:13:33;4.80;42.40
1011;DHT22;494;48.744;10.106;2023-03-03T03:16:04;4.90;42.90
1011;DHT22;494;48.744;10.106;2023-03-03T03:18:33;5.00;42.60
1011;DHT22;494;48.744;10.106;2023-03-03T03:21:06;5.10;42.40
1011;DHT22;494;48.744;10.106;2023-03-03T03:23:35;5.20;42.10
1011;DHT22;494;48.744;10.106;2023-03-03T03:26:05;5.40;41.80
1011;DHT22;494;48.744;10.106;2023-03-03T03:28:35;5.40;41.40
1011;DHT22;494;48.744;10.106;2023-03-03T03:31:06;5.50;41.20
1011;DHT22;494;48.744;10.106;2023-03-03T03:33:36;5.40;41.20
1011;DHT22;494;48.744;10.106;2023-03-03T03:36:06;5.30;41.10
1011;DHT22;494;48.744;10.106;2023-03-03T03:38:35;5.30;41.50
1011;DHT22;494;48.744;10.106;2023-03-03T03:41:05;5.50;40.80
1011;DHT22;494;48.744;10.106;2023-03-03T03:43:34;5.60;40.90
1011;DHT22;494;48.744;10.106;2023-03-03T03:46:05;5.40;40.80
1011;DHT22;494;48.744;10.106;2023-03-03T03:48:34;5.40;40.70
1011;DHT22;494;48.744;10.106;2023-03-03T03:51:03;5.40;40.60
1011;DHT22;494;48.744;10.106;2023-03-03T03:53:32;5.40;40.70
1011;DHT22;494;48.744;10.106;2023-03-03T03:56:00;5.40;40.70
1011;DHT22;494;48.744;10.106;2023-03-03T03:58:29;5.50;40.70
1011;DHT22;494;48.744;10.106;2023-03-03T04:01:02;5.60;40.50
1011;DHT22;494;48.744;10.106;2023-03-03T04:03:33;5.80;40.30
1011;DHT22;494;48.744;10.106;2023-03-03T04:06:02;5.80;40.00
1011;DHT22;494;48.744;10.106;2023-03-03T04:08:31;5.50;40.00
1011;DHT22;494;48.744;10.106;2023-03-03T04:11:00;5.50;40.50
1011;DHT22;494;48.744;10.106;2023-03-03T04:13:28;5.60;40.40
1011;DHT22;494;48.744;10.106;2023-03-03T04:16:01;5.50;40.40
1011;DHT22;494;48.744;10.106;2023-03-03T04:18:30;5.40;40.60
1011;DHT22;494;48.744;10.106;2023-03-03T04:21:00;5.40;40.50
1011;DHT22;494;48.744;10.106;2023-03-03T04:23:28;5.50;41.00
1011;DHT22;494;48.744;10.106;2023-03-03T04:25:57;5.50;40.90
1011;DHT22;494;48.744;10.106;2023-03-03T04:28:25;5.40;40.70
1011;DHT22;494;48.744;10.106;2023-03-03T04:30:54;5.40;40.50
1011;DHT22;494;48.744;10.106;2023-03-03T04:33:23;5.40;40.40
1011;DHT22;494;48.744;10.106;2023-03-03T04:35:52;5.40;40.40
1011;DHT22;494;48.744;10.106;2023-03-03T04:38:22;5.50;40.00
1011;DHT22;494;48.744;10.106;2023-03-03T04:40:52;5.60;39.70
1011;DHT22;494;48.744;10.106;2023-03-03T04:43:21;5.40;39.50
1011;DHT22;494;48.744;10.106;2023-03-03T04:45:50;5.40;39.70
1011;DHT22;494;48.744;10.106;2023-03-03T04:48:19;5.50;39.80
1011;DHT22;494;48.744;10.106;2023-03-03T04:50:48;5.50;39.40
1011;DHT22;494;48.744;10.106;2023-03-03T04:53:16;5.40;39.30
1011;DHT22;494;48.744;10.106;2023-03-03T04:55:49;5.40;39.20
1011;DHT22;494;48.744;10.106;2023-03-03T04:58:18;5.60;39.10
1011;DHT22;494;48.744;10.106;2023-03-03T05:00:53;5.40;39.00
1011;DHT22;494;48.744;10.106;2023-03-03T05:03:23;5.30;40.10
1011;DHT22;494;48.744;10.106;2023-03-03T05:05:52;5.40;39.50
1011;DHT22;494;48.744;10.106;2023-03-03T05:08:22;5.30;40.00
1011;DHT22;494;48.744;10.106;2023-03-03T05:10:53;5.20;40.20
1011;DHT22;494;48.744;10.106;2023-03-03T05:13:22;5.20;39.80
1011;DHT22;494;48.744;10.106;2023-03-03T05:15:52;5.40;39.90
1011;DHT22;494;48.744;10.106;2023-03-03T05:18:23;5.20;39.60
1011;DHT22;494;48.744;10.106;2023-03-03T05:20:53;5.40;39.60
1011;DHT22;494;48.744;10.106;2023-03-03T05:23:22;5.30;39.30
1011;DHT22;494;48.744;10.106;2023-03-03T05:25:52;5.30;39.00
1011;DHT22;494;48.744;10.106;2023-03-03T05:28:21;5.20;39.10
1011;DHT22;494;48.744;10.106;2023-03-03T05:30:50;5.30;39.20
1011;DHT22;494;48.744;10.106;2023-03-03T05:33:18;5.40;38.60
1011;DHT22;494;48.744;10.106;2023-03-03T05:35:51;5.40;38.50
1011;DHT22;494;48.744;10.106;2023-03-03T05:38:21;5.50;38.60
1011;DHT22;494;48.744;10.106;2023-03-03T05:40:52;5.40;38.60
1011;DHT22;494;48.744;10.106;2023-03-03T05:43:22;5.50;38.50
1011;DHT22;494;48.744;10.106;2023-03-03T05:45:54;5.30;38.70
1011;DHT22;494;48.744;10.106;2023-03-03T05:48:24;5.20;39.30
1011;DHT22;494;48.744;10.106;2023-03-03T05:50:52;5.10;39.50
1011;DHT22;494;48.744;10.106;2023-03-03T05:53:21;5.30;39.40
1011;DHT22;494;48.744;10.106;2023-03-03T05:55:52;5.10;39.50
1011;DHT22;494;48.744;10.106;2023-03-03T05:58:21;5.30;39.70
1011;DHT22;494;48.744;10.106;2023-03-03T06:00:50;5.10;39.40
1011;DHT22;494;48.744;10.106;2023-03-03T06:03:19;5.00;39.50
1011;DHT22;494;48.744;10.106;2023-03-03T06:05:48;5.00;39.80
1011;DHT22;494;48.744;10.106;2023-03-03T06:08:17;4.90;40.20
1011;DHT22;494;48.744;10.106;2023-03-03T06:10:45;4.90;40.30
1011;DHT22;494;48.744;10.106;2023-03-03T06:13:16;4.90;40.50
1011;DHT22;494;48.744;10.106;2023-03-03T06:15:45;5.00;40.50
1011;DHT22;494;48.744;10.106;2023-03-03T06:18:14;4.80;40.70
1011;DHT22;494;48.744;10.106;2023-03-03T06:20:42;5.00;41.00
1011;DHT22;494;48.744;10.106;2023-03-03T06:23:11;4.80;40.80
1011;DHT22;494;48.744;10.106;2023-03-03T06:25:40;4.80;41.30
1011;DHT22;494;48.744;10.106;2023-03-03T06:28:08;4.70;41.30
1011;DHT22;494;48.744;10.106;2023-03-03T06:30:38;4.90;41.30
1011;DHT22;494;48.744;10.106;2023-03-03T06:33:07;4.80;41.10
1011;DHT22;494;48.744;10.106;2023-03-03T06:35:36;5.00;40.90
1011;DHT22;494;48.744;10.106;2023-03-03T06:38:05;5.00;40.30
1011;DHT22;494;48.744;10.106;2023-03-03T06:40:34;5.00;40.00
1011;DHT22;494;48.744;10.106;2023-03-03T06:43:02;5.10;40.10
1011;DHT22;494;48.744;10.106;2023-03-03T06:45:31;5.20;39.90
1011;DHT22;494;48.744;10.106;2023-03-03T06:48:01;5.30;40.00
1011;DHT22;494;48.744;10.106;2023-03-03T06:50:30;5.20;39.50
1011;DHT22;494;48.744;10.106;2023-03-03T06:53:01;5.30;39.40
1011;DHT22;494;48.744;10.106;2023-03-03T06:55:38;5.30;39.10
1011;DHT22;494;48.744;10.106;2023-03-03T06:58:11;5.30;38.80
1011;DHT22;494;48.744;10.106;2023-03-03T07:00:44;5.30;39.00
1011;DHT22;494;48.744;10.106;2023-03-03T07:03:16;5.30;39.10
1011;DHT22;494;48.744;10.106;2023-03-03T07:05:46;5.40;39.20
1011;DHT22;494;48.744;10.106;2023-03-03T07:08:17;5.50;39.00
1011;DHT22;494;48.744;10.106;2023-03-03T07:10:48;5.50;38.80
1011;DHT22;494;48.744;10.106;2023-03-03T07:13:19;5.30;39.10
1011;DHT22;494;48.744;10.106;2023-03-03T07:15:51;5.50;39.10
1011;DHT22;494;48.744;10.106;2023-03-03T07:18:38;5.50;38.80
1011;DHT22;494;48.744;10.106;2023-03-03T07:21:15;5.50;38.60
1011;DHT22;494;48.744;10.106;2023-03-03T07:23:47;5.40;38.60
1011;DHT22;494;48.744;10.106;2023-03-03T07:26:24;5.50;38.80
1011;DHT22;494;48.744;10.106;2023-03-03T07:28:59;5.60;38.60
1011;DHT22;494;48.744;10.106;2023-03-03T07:31:33;5.70;38.50
1011;DHT22;494;48.744;10.106;2023-03-03T07:34:16;5.90;38.40
1011;DHT22;494;48.744;10.106;2023-03-03T07:36:49;6.00;38.10
1011;DHT22;494;48.744;10.106;2023-03-03T07:39:29;6.20;37.50
1011;DHT22;494;48.744;10.106;2023-03-03T07:42:19;6.20;37.00
1011;DHT22;494;48.744;10.106;2023-03-03T07:44:50;6.30;36.30
1011;DHT22;494;48.744;10.106;2023-03-03T07:47:23;6.40;36.10
1011;DHT22;494;48.744;10.106;2023-03-03T07:49:56;6.50;36.20
1011;DHT22;494;48.744;10.106;2023-03-03T07:52:30;6.60;35.50
1011;DHT22;494;48.744;10.106;2023-03-03T07:55:24;6.50;35.30
1011;DHT22;494;48.744;10.106;2023-03-03T07:58:14;6.90;34.70
1011;DHT22;494;48.744;10.106;2023-03-03T08:04:16;7.10;33.10
1011;DHT22;494;48.744;10.106;2023-03-03T08:06:55;7.30;32.80
1011;DHT22;494;48.744;10.106;2023-03-03T08:09:43;7.30;32.60
1011;DHT22;494;48.744;10.106;2023-03-03T08:12:38;7.40;32.70
1011;DHT22;494;48.744;10.106;2023-03-03T08:15:17;7.50;31.20
1011;DHT22;494;48.744;10.106;2023-03-03T08:17:52;7.50;31.00
1011;DHT22;494;48.744;10.106;2023-03-03T08:20:43;7.50;31.10
1011;DHT22;494;48.744;10.106;2023-03-03T08:23:16;7.60;31.20
1011;DHT22;494;48.744;10.106;2023-03-03T08:25:48;7.60;30.50
1011;DHT22;494;48.744;10.106;2023-03-03T08:28:18;7.70;30.60
1011;DHT22;494;48.744;10.106;2023-03-03T08:30:48;7.80;30.00
1011;DHT22;494;48.744;10.106;2023-03-03T08:33:26;8.00;29.80
1011;DHT22;494;48.744;10.106;2023-03-03T08:35:54;8.10;29.10
1011;DHT22;494;48.744;10.106;2023-03-03T08:38:24;8.20;28.60
1011;DHT22;494;48.744;10.106;2023-03-03T08:40:53;8.20;28.30
1011;DHT22;494;48.744;10.106;2023-03-03T08:43:22;8.20;28.20
1011;DHT22;494;48.744;10.106;2023-03-03T08:45:57;8.20;27.70
1011;DHT22;494;48.744;10.106;2023-03-03T08:48:28;8.20;27.60
1011;DHT22;494;48.744;10.106;2023-03-03T08:50:58;8.10;28.10
1011;DHT22;494;48.744;10.106;2023-03-03T08:53:29;8.20;28.80
1011;DHT22;494;48.744;10.106;2023-03-03T08:56:00;8.30;28.00
1011;DHT22;494;48.744;10.106;2023-03-03T08:58:28;8.60;27.30
1011;DHT22;494;48.744;10.106;2023-03-03T09:01:02;8.50;27.40
1011;DHT22;494;48.744;10.106;2023-03-03T09:03:31;8.60;26.50
1011;DHT22;494;48.744;10.106;2023-03-03T09:06:00;8.60;26.20
1011;DHT22;494;48.744;10.106;2023-03-03T09:08:30;8.70;25.70
1011;DHT22;494;48.744;10.106;2023-03-03T09:10:59;8.70;24.50
1011;DHT22;494;48.744;10.106;2023-03-03T09:13:28;8.90;22.70
1011;DHT22;494;48.744;10.106;2023-03-03T09:15:58;8.70;21.90
1011;DHT22;494;48.744;10.106;2023-03-03T09:18:30;8.80;22.20
1011;DHT22;494;48.744;10.106;2023-03-03T09:21:16;9.10;21.50
1011;DHT22;494;48.744;10.106;2023-03-03T09:23:54;9.40;20.00
1011;DHT22;494;48.744;10.106;2023-03-03T09:26:27;9.40;19.60
1011;DHT22;494;48.744;10.106;2023-03-03T09:29:06;9.40;19.50
1011;DHT22;494;48.744;10.106;2023-03-03T09:31:45;9.60;19.80
1011;DHT22;494;48.744;10.106;2023-03-03T09:34:21;9.70;19.90
1011;DHT22;494;48.744;10.106;2023-03-03T09:36:53;9.70;19.50
1011;DHT22;494;48.744;10.106;2023-03-03T09:39:29;9.60;20.00
1011;DHT22;494;48.744;10.106;2023-03-03T09:45:28;9.30;20.00
1011;DHT22;494;48.744;10.106;2023-03-03T09:48:27;9.40;20.70
1011;DHT22;494;48.744;10.106;2023-03-03T09:51:17;9.40;20.90
1011;DHT22;494;48.744;10.106;2023-03-03T09:54:10;9.50;20.40
1011;DHT22;494;48.744;10.106;2023-03-03T09:56:52;9.50;20.40
1011;DHT22;494;48.744;10.106;2023-03-03T09:59:44;9.60;20.00
1011;DHT22;494;48.744;10.106;2023-03-03T10:02:41;9.70;19.40
1011;DHT22;494;48.744;10.106;2023-03-03T10:05:31;9.80;20.00
1011;DHT22;494;48.744;10.106;2023-03-03T10:08:20;9.90;18.90
1011;DHT22;494;48.744;10.106;2023-03-03T10:11:10;9.90;17.40
1011;DHT22;494;48.744;10.106;2023-03-03T10:14:12;9.80;17.50
1011;DHT22;494;48.744;10.106;2023-03-03T10:20:25;9.80;17.70
1011;DHT22;494;48.744;10.106;2023-03-03T10:23:22;9.60;17.10
1011;DHT22;494;48.744;10.106;2023-03-03T10:26:05;9.70;17.40
1011;DHT22;494;48.744;10.106;2023-03-03T10:29:00;9.80;16.20
1011;DHT22;494;48.744;10.106;2023-03-03T10:31:45;9.70;16.50
1011;DHT22;494;48.744;10.106;2023-03-03T10:34:49;9.70;16.20
1011;DHT22;494;48.744;10.106;2023-03-03T10:37:33;9.70;16.50
1011;DHT22;494;48.744;10.106;2023-03-03T10:40:16;9.80;16.10
1011;DHT22;494;48.744;10.106;2023-03-03T10:43:15;9.70;16.80
1011;DHT22;494;48.744;10.106;2023-03-03T10:46:15;9.70;16.50
1011;DHT22;494;48.744;10.106;2023-03-03T10:49:19;9.60;15.80
1011;DHT22;494;48.744;10.106;2023-03-03T10:52:18;9.80;15.60
1011;DHT22;494;48.744;10.106;2023-03-03T10:55:24;9.90;15.40
1011;DHT22;494;48.744;10.106;2023-03-03T10:58:29;10.10;15.60
1011;DHT22;494;48.744;10.106;2023-03-03T11:01:21;10.10;15.00
1011;DHT22;494;48.744;10.106;2023-03-03T11:04:17;10.40;15.10
1011;DHT22;494;48.744;10.106;2023-03-03T11:07:02;10.60;14.80
1011;DHT22;494;48.744;10.106;2023-03-03T11:12:46;10.70;14.60
1011;DHT22;494;48.744;10.106;2023-03-03T11:15:37;10.80;13.90
1011;DHT22;494;48.744;10.106;2023-03-03T11:18:22;11.00;13.30
1011;DHT22;494;48.744;10.106;2023-03-03T11:21:06;11.00;13.10
1011;DHT22;494;48.744;10.106;2023-03-03T11:23:59;10.80;13.40
1011;DHT22;494;48.744;10.106;2023-03-03T11:27:18;10.70;14.00
1011;DHT22;494;48.744;10.106;2023-03-03T11:30:23;11.00;14.40
1011;DHT22;494;48.744;10.106;2023-03-03T11:33:03;11.10;14.20
1011;DHT22;494;48.744;10.106;2023-03-03T11:35:42;11.00;13.60
1011;DHT22;494;48.744;10.106;2023-03-03T11:41:22;11.00;13.50
1011;DHT22;494;48.744;10.106;2023-03-03T11:44:04;11.20;13.70
1011;DHT22;494;48.744;10.106;2023-03-03T11:46:45;11.40;13.40
1011;DHT22;494;48.744;10.106;2023-03-03T11:49:23;11.60;12.70
1011;DHT22;494;48.744;10.106;2023-03-03T11:52:04;11.60;12.80
1011;DHT22;494;48.744;10.106;2023-03-03T11:54:52;11.90;12.40
1011;DHT22;494;48.744;10.106;2023-03-03T11:57:28;12.30;11.40
1011;DHT22;494;48.744;10.106;2023-03-03T12:00:14;12.70;11.10
1011;DHT22;494;48.744;10.106;2023-03-03T12:03:24;13.00;10.00
1011;DHT22;494;48.744;10.106;2023-03-03T12:06:07;13.70;9.60
1011;DHT22;494;48.744;10.106;2023-03-03T12:09:00;14.60;7.70
1011;DHT22;494;48.744;10.106;2023-03-03T12:11:45;15.50;6.10
1011;DHT22;494;48.744;10.106;2023-03-03T12:14:31;16.10;5.90
1011;DHT22;494;48.744;10.106;2023-03-03T12:17:18;17.00;5.20
1011;DHT22;494;48.744;10.106;2023-03-03T12:20:05;18.60;2.80
1011;DHT22;494;48.744;10.106;2023-03-03T12:22:44;19.90;1.00
1011;DHT22;494;48.744;10.106;2023-03-03T12:25:35;20.70;1.00
1011;DHT22;494;48.744;10.106;2023-03-03T12:28:12;21.20;1.00
1011;DHT22;494;48.744;10.106;2023-03-03T12:31:02;21.50;1.00
1011;DHT22;494;48.744;10.106;2023-03-03T12:33:51;22.10;1.00
1011;DHT22;494;48.744;10.106;2023-03-03T12:39:46;23.00;1.00
1011;DHT22;494;48.744;10.106;2023-03-03T12:42:32;23.20;1.00
1011;DHT22;494;48.744;10.106;2023-03-03T12:45:22;23.00;1.00
1011;DHT22;494;48.744;10.106;2023-03-03T12:48:00;23.00;1.00
1011;DHT22;494;48.744;10.106;2023-03-03T12:50:45;23.20;1.00
1011;DHT22;494;48.744;10.106;2023-03-03T12:53:47;23.40;1.00
1011;DHT22;494;48.744;10.106;2023-03-03T12:56:34;23.60;1.00
1011;DHT22;494;48.744;10.106;2023-03-03T12:59:17;23.50;1.00
1011;DHT22;494;48.744;10.106;2023-03-03T13:02:19;23.70;1.00
1011;DHT22;494;48.744;10.106;2023-03-03T13:05:20;23.90;1.00
1011;DHT22;494;48.744;10.106;2023-03-03T13:08:02;24.20;1.00
1011;DHT22;494;48.744;10.106;2023-03-03T13:10:47;24.30;1.00
1011;DHT22;494;48.744;10.106;2023-03-03T13:13:24;24.30;1.00
1011;DHT22;494;48.744;10.106;2023-03-03T13:16:01;24.30;1.00
1011;DHT22;494;48.744;10.106;2023-03-03T13:18:47;24.40;1.00
1011;DHT22;494;48.744;10.106;2023-03-03T13:21:24;24.60;1.00
1011;DHT22;494;48.744;10.106;2023-03-03T13:24:03;24.60;1.00
1011;DHT22;494;48.744;10.106;2023-03-03T13:26:43;24.80;1.00
1011;DHT22;494;48.744;10.106;2023-03-03T13:29:19;24.80;1.00
1011;DHT22;494;48.744;10.106;2023-03-03T13:31:55;24.90;1.00
1011;DHT22;494;48.744;10.106;2023-03-03T13:34:46;25.00;1.00
1011;DHT22;494;48.744;10.106;2023-03-03T13:37:26;25.10;1.00
1011;DHT22;494;48.744;10.106;2023-03-03T13:40:00;25.20;1.00
1011;DHT22;494;48.744;10.106;2023-03-03T13:42:39;25.10;1.00
1011;DHT22;494;48.744;10.106;2023-03-03T13:45:17;24.90;1.00
1011;DHT22;494;48.744;10.106;2023-03-03T13:47:59;24.80;1.00
1011;DHT22;494;48.744;10.106;2023-03-03T13:50:41;24.70;1.00
1011;DHT22;494;48.744;10.106;2023-03-03T13:53:31;24.40;1.00
1011;DHT22;494;48.744;10.106;2023-03-03T13:56:34;24.30;1.00
1011;DHT22;494;48.744;10.106;2023-03-03T13:59:20;24.10;1.00
1011;DHT22;494;48.744;10.106;2023-03-03T14:02:00;23.80;1.00
1011;DHT22;494;48.744;10.106;2023-03-03T14:04:45;23.80;1.00
1011;DHT22;494;48.744;10.106;2023-03-03T14:07:25;23.80;1.00
1011;DHT22;494;48.744;10.106;2023-03-03T14:10:02;23.80;1.00
1011;DHT22;494;48.744;10.106;2023-03-03T14:12:41;23.90;1.00
1011;DHT22;494;48.744;10.106;2023-03-03T14:15:21;23.90;1.00
1011;DHT22;494;48.744;10.106;2023-03-03T14:21:01;23.80;1.00
1011;DHT22;494;48.744;10.106;2023-03-03T14:23:49;23.90;1.00
1011;DHT22;494;48.744;10.106;2023-03-03T14:26:23;23.70;1.00
1011;DHT22;494;48.744;10.106;2023-03-03T14:29:23;23.80;1.00
1011;DHT22;494;48.744;10.106;2023-03-03T14:31:59;23.90;1.00
1011;DHT22;494;48.744;10.106;2023-03-03T14:34:34;24.10;1.00
1011;DHT22;494;48.744;10.106;2023-03-03T14:37:21;24.30;1.00
1011;DHT22;494;48.744;10.106;2023-03-03T14:40:06;24.30;1.00
1011;DHT22;494;48.744;10.106;2023-03-03T14:42:47;24.30;1.00
1011;DHT22;494;48.744;10.106;2023-03-03T14:45:28;24.40;1.00
1011;DHT22;494;48.744;10.106;2023-03-03T14:48:09;24.20;1.00
1011;DHT22;494;48.744;10.106;2023-03-03T14:50:48;24.20;1.00
1011;DHT22;494;48.744;10.106;2023-03-03T14:53:30;24.30;1.00
1011;DHT22;494;48.744;10.106;2023-03-03T14:56:24;23.90;1.00
1011;DHT22;494;48.744;10.106;2023-03-03T14:59:15;23.30;1.00
1011;DHT22;494;48.744;10.106;2023-03-03T15:01:46;22.90;1.00
1011;DHT22;494;48.744;10.106;2023-03-03T15:04:24;22.70;1.00
1011;DHT22;494;48.744;10.106;2023-03-03T15:06:55;22.70;1.00
1011;DHT22;494;48.744;10.106;2023-03-03T15:09:29;22.60;1.00
1011;DHT22;494;48.744;10.106;2023-03-03T15:12:18;22.70;1.00
1011;DHT22;494;48.744;10.106;2023-03-03T15:14:49;22.50;1.00
1011;DHT22;494;48.744;10.106;2023-03-03T15:17:27;22.30;1.00
1011;DHT22;494;48.744;10.106;2023-03-03T15:20:21;22.30;1.00
1011;DHT22;494;48.744;10.106;2023-03-03T15:23:21;22.30;1.00
1011;DHT22;494;48.744;10.106;2023-03-03T15:26:05;22.40;1.00
1011;DHT22;494;48.744;10.106;2023-03-03T15:28:54;22.30;1.00
1011;DHT22;494;48.744;10.106;2023-03-03T15:31:37;21.80;1.00
1011;DHT22;494;48.744;10.106;2023-03-03T15:34:23;21.40;1.00
1011;DHT22;494;48.744;10.106;2023-03-03T15:37:07;21.30;1.00
1011;DHT22;494;48.744;10.106;2023-03-03T15:39:48;21.30;1.00
1011;DHT22;494;48.744;10.106;2023-03-03T15:42:31;21.10;1.00
1011;DHT22;494;48.744;10.106;2023-03-03T15:45:16;21.20;1.00
1011;DHT22;494;48.744;10.106;2023-03-03T15:48:18;21.10;1.00
1011;DHT22;494;48.744;10.106;2023-03-03T15:51:07;20.90;1.00
1011;DHT22;494;48.744;10.106;2023-03-03T15:53:53;20.60;1.00
1011;DHT22;494;48.744;10.106;2023-03-03T15:56:37;20.10;1.20
1011;DHT22;494;48.744;10.106;2023-03-03T15:59:32;19.70;1.90
1011;DHT22;494;48.744;10.106;2023-03-03T16:02:22;19.60;2.70
1011;DHT22;494;48.744;10.106;2023-03-03T16:04:55;19.30;2.90
1011;DHT22;494;48.744;10.106;2023-03-03T16:07:35;19.00;3.40
1011;DHT22;494;48.744;10.106;2023-03-03T16:10:18;18.60;3.80
1011;DHT22;494;48.744;10.106;2023-03-03T16:12:58;18.10;4.50
1011;DHT22;494;48.744;10.106;2023-03-03T16:15:49;17.40;5.60
1011;DHT22;494;48.744;10.106;2023-03-03T16:18:36;16.50;6.90
1011;DHT22;494;48.744;10.106;2023-03-03T16:21:20;15.60;8.20
1011;DHT22;494;48.744;10.106;2023-03-03T16:23:59;14.80;9.40
1011;DHT22;494;48.744;10.106;2023-03-03T16:26:42;14.30;10.50
1011;DHT22;494;48.744;10.106;2023-03-03T16:29:33;13.90;11.40
1011;DHT22;494;48.744;10.106;2023-03-03T16:32:11;13.40;12.10
1011;DHT22;494;48.744;10.106;2023-03-03T16:34:54;13.00;13.20
1011;DHT22;494;48.744;10.106;2023-03-03T16:37:29;12.60;14.10
1011;DHT22;494;48.744;10.106;2023-03-03T16:40:08;12.20;14.90
1011;DHT22;494;48.744;10.106;2023-03-03T16:42:42;11.80;15.40
1011;DHT22;494;48.744;10.106;2023-03-03T16:45:23;11.60;15.90
1011;DHT22;494;48.744;10.106;2023-03-03T16:48:13;11.50;16.20
1011;DHT22;494;48.744;10.106;2023-03-03T16:51:08;11.20;16.60
1011;DHT22;494;48.744;10.106;2023-03-03T16:53:51;10.90;17.20
1011;DHT22;494;48.744;10.106;2023-03-03T16:56:33;10.60;18.30
1011;DHT22;494;48.744;10.106;2023-03-03T16:59:33;10.30;18.50
1011;DHT22;494;48.744;10.106;2023-03-03T17:02:31;10.10;19.20
1011;DHT22;494;48.744;10.106;2023-03-03T17:05:19;9.90;19.80
1011;DHT22;494;48.744;10.106;2023-03-03T17:08:06;9.30;21.20
1011;DHT22;494;48.744;10.106;2023-03-03T17:10:50;9.00;22.50
1011;DHT22;494;48.744;10.106;2023-03-03T17:16:56;8.60;24.20
1011;DHT22;494;48.744;10.106;2023-03-03T17:19:43;8.40;24.80
1011;DHT22;494;48.744;10.106;2023-03-03T17:22:37;8.20;25.70
1011;DHT22;494;48.744;10.106;2023-03-03T17:25:21;8.20;25.60
1011;DHT22;494;48.744;10.106;2023-03-03T17:28:13;8.10;25.80
1011;DHT22;494;48.744;10.106;2023-03-03T17:30:56;8.10;26.10
1011;DHT22;494;48.744;10.106;2023-03-03T17:33:46;7.90;26.70
1011;DHT22;494;48.744;10.106;2023-03-03T17:36:45;7.90;27.50
1011;DHT22;494;48.744;10.106;2023-03-03T17:42:54;7.70;27.80
1011;DHT22;494;48.744;10.106;2023-03-03T17:45:33;7.50;28.70
1011;DHT22;494;48.744;10.106;2023-03-03T17:48:14;7.20;29.20
1011;DHT22;494;48.744;10.106;2023-03-03T17:51:42;7.20;29.20
1011;DHT22;494;48.744;10.106;2023-03-03T17:54:44;7.10;29.50
1011;DHT22;494;48.744;10.106;2023-03-03T17:57:45;7.10;29.90
1011;DHT22;494;48.744;10.106;2023-03-03T18:01:39;7.00;30.00
1011;DHT22;494;48.744;10.106;2023-03-03T18:05:16;7.10;30.30